sensor_id;sensor_type;location;lat;lon;timestamp;temperature;humidity
3198;DHT22;1611;49.394;11.136;2023-11-21T00:01:54;9.20;73.20
3198;DHT22;1611;49.394;11.136;2023-11-21T00:04:22;9.20;73.20
3198;DHT22;1611;49.394;11.136;2023-11-21T00:06:51;9.10;73.20
3198;DHT22;1611;49.394;11.136;2023-11-21T00:09:17;9.00;73.50
3198;DHT22;1611;49.394;11.136;2023-11-21T00:11:45;9.10;73.80
3198;DHT22;1611;49.394;11.136;2023-11-21T00:14:12;9.10;73.60
3198;DHT22;1611;49.394;11.136;2023-11-21T00:16:40;9.10;73.40
3198;DHT22;1611;49.394;11.136;2023-11-21T00:19:07;9.20;73.30
3198;DHT22;1611;49.394;11.136;2023-11-21T00:21:34;9.20;73.00
3198;DHT22;1611;49.394;11.136;2023-11-21T00:24:02;9.20;72.90
3198;DHT22;1611;49.394;11.136;2023-11-21T00:26:29;9.30;73.00
3198;DHT22;1611;49.394;11.136;2023-11-21T00:28:56;9.30;72.70
3198;DHT22;1611;49.394;11.136;2023-11-21T00:31:22;9.30;72.30
3198;DHT22;1611;49.394;11.136;2023-11-21T00:33:49;9.30;72.00
3198;DHT22;1611;49.394;11.136;2023-11-21T00:36:15;9.30;71.90
3198;DHT22;1611;49.394;11.136;2023-11-21T00:38:42;9.20;71.90
3198;DHT22;1611;49.394;11.136;2023-11-21T00:41:10;9.20;72.00
3198;DHT22;1611;49.394;11.136;2023-11-21T00:43:37;9.20;72.00
3198;DHT22;1611;49.394;11.136;2023-11-21T00:46:04;9.20;72.00
3198;DHT22;1611;49.394;11.136;2023-11-21T00:48:32;9.20;72.00
3198;DHT22;1611;49.394;11.136;2023-11-21T00:50:59;9.30;72.00
3198;DHT22;1611;49.394;11.136;2023-11-21T00:53:26;9.20;71.90
3198;DHT22;1611;49.394;11.136;2023-11-21T00:55:53;9.20;72.40
3198;DHT22;1611;49.394;11.136;2023-11-21T00:58:24;9.10;72.60
3198;DHT22;1611;49.394;11.136;2023-11-21T01:00:51;9.10;72.70
3198;DHT22;1611;49.394;11.136;2023-11-21T01:03:18;9.10;73.10
3198;DHT22;1611;49.394;11.136;2023-11-21T01:05:45;9.10;72.60
3198;DHT22;1611;49.394;11.136;2023-11-21T01:08:12;9.10;72.80
3198;DHT22;1611;49.394;11.136;2023-11-21T01:10:38;9.10;73.20
3198;DHT22;1611;49.394;11.136;2023-11-21T01:13:05;9.10;73.10
3198;DHT22;1611;49.394;11.136;2023-11-21T01:15:34;9.20;73.10
3198;DHT22;1611;49.394;11.136;2023-11-21T01:18:00;9.20;73.40
3198;DHT22;1611;49.394;11.136;2023-11-21T01:20:29;9.30;73.60
3198;DHT22;1611;49.394;11.136;2023-11-21T01:22:55;9.20;73.40
3198;DHT22;1611;49.394;11.136;2023-11-21T01:25:22;9.10;73.90
3198;DHT22;1611;49.394;11.136;2023-11-21T01:27:49;9.00;73.20
3198;DHT22;1611;49.394;11.136;2023-11-21T01:30:16;9.10;72.80
3198;DHT22;1611;49.394;11.136;2023-11-21T01:32:44;9.10;73.10
3198;DHT22;1611;49.394;11.136;2023-11-21T01:35:11;9.00;73.10
3198;DHT22;1611;49.394;11.136;2023-11-21T01:37:38;9.10;73.30
3198;DHT22;1611;49.394;11.136;2023-11-21T01:40:05;9.00;73.90
3198;DHT22;1611;49.394;11.136;2023-11-21T01:42:35;9.10;73.30
3198;DHT22;1611;49.394;11.136;2023-11-21T01:45:02;9.10;72.90
3198;DHT22;1611;49.394;11.136;2023-11-21T01:47:30;9.20;72.60
3198;DHT22;1611;49.394;11.136;2023-11-21T01:49:59;9.10;72.70
3198;DHT22;1611;49.394;11.136;2023-11-21T01:52:26;9.10;72.90
3198;DHT22;1611;49.394;11.136;2023-11-21T01:54:53;9.10;72.80
3198;DHT22;1611;49.394;11.136;2023-11-21T01:57:20;9.10;72.30
3198;DHT22;1611;49.394;11.136;2023-11-21T01:59:49;9.20;72.60
3198;DHT22;1611;49.394;11.136;2023-11-21T02:02:15;9.10;72.50
3198;DHT22;1611;49.394;11.136;2023-11-21T02:04:43;9.20;72.00
3198;DHT22;1611;49.394;11.136;2023-11-21T02:07:11;9.20;71.90
3198;DHT22;1611;49.394;11.136;2023-11-21T02:09:38;9.30;71.90
3198;DHT22;1611;49.394;11.136;2023-11-21T02:12:08;9.20;72.00
3198;DHT22;1611;49.394;11.136;2023-11-21T02:14:36;9.20;71.90
3198;DHT22;1611;49.394;11.136;2023-11-21T02:17:03;9.10;71.70
3198;DHT22;1611;49.394;11.136;2023-11-21T02:19:30;9.00;72.30
3198;DHT22;1611;49.394;11.136;2023-11-21T02:21:58;9.00;72.50
3198;DHT22;1611;49.394;11.136;2023-11-21T02:24:29;9.20;72.20
3198;DHT22;1611;49.394;11.136;2023-11-21T02:26:57;9.10;72.30
3198;DHT22;1611;49.394;11.136;2023-11-21T02:29:24;9.10;72.00
3198;DHT22;1611;49.394;11.136;2023-11-21T02:31:55;9.10;72.30
3198;DHT22;1611;49.394;11.136;2023-11-21T02:34:22;9.20;72.50
3198;DHT22;1611;49.394;11.136;2023-11-21T02:36:50;9.00;72.90
3198;DHT22;1611;49.394;11.136;2023-11-21T02:39:17;9.00;72.70
3198;DHT22;1611;49.394;11.136;2023-11-21T02:41:48;9.10;72.50
3198;DHT22;1611;49.394;11.136;2023-11-21T02:44:15;9.10;72.40
3198;DHT22;1611;49.394;11.136;2023-11-21T02:46:42;9.10;72.10
3198;DHT22;1611;49.394;11.136;2023-11-21T02:49:09;9.20;71.90
3198;DHT22;1611;49.394;11.136;2023-11-21T02:51:35;9.10;72.30
3198;DHT22;1611;49.394;11.136;2023-11-21T02:54:03;9.10;72.30
3198;DHT22;1611;49.394;11.136;2023-11-21T02:56:32;9.10;72.10
3198;DHT22;1611;49.394;11.136;2023-11-21T02:59:01;9.00;72.40
3198;DHT22;1611;49.394;11.136;2023-11-21T03:01:28;9.10;73.00
3198;DHT22;1611;49.394;11.136;2023-11-21T03:03:55;9.10;72.70
3198;DHT22;1611;49.394;11.136;2023-11-21T03:06:22;9.10;72.30
3198;DHT22;1611;49.394;11.136;2023-11-21T03:08:49;9.10;72.40
3198;DHT22;1611;49.394;11.136;2023-11-21T03:11:16;9.10;72.20
3198;DHT22;1611;49.394;11.136;2023-11-21T03:13:43;9.10;72.50
3198;DHT22;1611;49.394;11.136;2023-11-21T03:16:12;9.20;72.10
3198;DHT22;1611;49.394;11.136;2023-11-21T03:18:39;9.10;72.50
3198;DHT22;1611;49.394;11.136;2023-11-21T03:21:06;9.00;73.00
3198;DHT22;1611;49.394;11.136;2023-11-21T03:23:34;9.10;72.70
3198;DHT22;1611;49.394;11.136;2023-11-21T03:26:01;9.10;72.80
3198;DHT22;1611;49.394;11.136;2023-11-21T03:28:28;9.00;72.30
3198;DHT22;1611;49.394;11.136;2023-11-21T03:30:55;9.10;72.10
3198;DHT22;1611;49.394;11.136;2023-11-21T03:33:24;9.10;72.50
3198;DHT22;1611;49.394;11.136;2023-11-21T03:35:50;9.10;72.60
3198;DHT22;1611;49.394;11.136;2023-11-21T03:38:18;9.10;72.60
3198;DHT22;1611;49.394;11.136;2023-11-21T03:40:45;9.10;72.40
3198;DHT22;1611;49.394;11.136;2023-11-21T03:43:13;9.10;72.40
3198;DHT22;1611;49.394;11.136;2023-11-21T03:45:40;9.10;72.70
3198;DHT22;1611;49.394;11.136;2023-11-21T03:48:07;9.00;72.50
3198;DHT22;1611;49.394;11.136;2023-11-21T03:50:35;9.10;72.70
3198;DHT22;1611;49.394;11.136;2023-11-21T03:53:02;9.00;72.60
3198;DHT22;1611;49.394;11.136;2023-11-21T03:55:29;9.10;72.90
3198;DHT22;1611;49.394;11.136;2023-11-21T03:57:57;9.00;73.00
3198;DHT22;1611;49.394;11.136;2023-11-21T04:00:24;9.10;72.70
3198;DHT22;1611;49.394;11.136;2023-11-21T04:02:52;8.90;72.90
3198;DHT22;1611;49.394;11.136;2023-11-21T04:05:20;9.00;73.40
3198;DHT22;1611;49.394;11.136;2023-11-21T04:07:48;9.00;73.60
3198;DHT22;1611;49.394;11.136;2023-11-21T04:10:15;9.00;73.20
3198;DHT22;1611;49.394;11.136;2023-11-21T04:12:42;8.90;73.10
3198;DHT22;1611;49.394;11.136;2023-11-21T04:15:10;8.90;73.40
3198;DHT22;1611;49.394;11.136;2023-11-21T04:17:38;9.00;73.20
3198;DHT22;1611;49.394;11.136;2023-11-21T04:20:06;8.90;72.50
3198;DHT22;1611;49.394;11.136;2023-11-21T04:22:36;8.90;73.00
3198;DHT22;1611;49.394;11.136;2023-11-21T04:25:05;8.90;73.40
3198;DHT22;1611;49.394;11.136;2023-11-21T04:27:32;8.90;73.30
3198;DHT22;1611;49.394;11.136;2023-11-21T04:30:00;9.00;73.10
3198;DHT22;1611;49.394;11.136;2023-11-21T04:32:26;9.00;73.10
3198;DHT22;1611;49.394;11.136;2023-11-21T04:34:53;9.00;73.00
3198;DHT22;1611;49.394;11.136;2023-11-21T04:37:20;9.10;72.80
3198;DHT22;1611;49.394;11.136;2023-11-21T04:39:47;9.00;72.50
3198;DHT22;1611;49.394;11.136;2023-11-21T04:42:15;9.10;72.10
3198;DHT22;1611;49.394;11.136;2023-11-21T04:44:41;9.00;72.10
3198;DHT22;1611;49.394;11.136;2023-11-21T04:47:09;9.00;72.00
3198;DHT22;1611;49.394;11.136;2023-11-21T04:49:36;9.10;72.60
3198;DHT22;1611;49.394;11.136;2023-11-21T04:52:03;9.10;72.40
3198;DHT22;1611;49.394;11.136;2023-11-21T04:54:31;9.10;72.00
3198;DHT22;1611;49.394;11.136;2023-11-21T04:56:57;9.10;71.70
3198;DHT22;1611;49.394;11.136;2023-11-21T04:59:25;9.10;72.00
3198;DHT22;1611;49.394;11.136;2023-11-21T05:01:52;9.10;72.00
3198;DHT22;1611;49.394;11.136;2023-11-21T05:04:19;9.10;71.80
3198;DHT22;1611;49.394;11.136;2023-11-21T05:06:47;9.00;72.40
3198;DHT22;1611;49.394;11.136;2023-11-21T05:09:14;9.00;72.40
3198;DHT22;1611;49.394;11.136;2023-11-21T05:11:41;9.00;72.10
3198;DHT22;1611;49.394;11.136;2023-11-21T05:14:08;9.00;72.40
3198;DHT22;1611;49.394;11.136;2023-11-21T05:16:36;9.00;72.50
3198;DHT22;1611;49.394;11.136;2023-11-21T05:19:03;9.00;72.60
3198;DHT22;1611;49.394;11.136;2023-11-21T05:21:31;9.10;72.50
3198;DHT22;1611;49.394;11.136;2023-11-21T05:23:58;9.10;72.30
3198;DHT22;1611;49.394;11.136;2023-11-21T05:26:24;9.00;72.70
3198;DHT22;1611;49.394;11.136;2023-11-21T05:28:51;9.00;73.10
3198;DHT22;1611;49.394;11.136;2023-11-21T05:31:18;9.00;72.70
3198;DHT22;1611;49.394;11.136;2023-11-21T05:33:47;9.10;72.70
3198;DHT22;1611;49.394;11.136;2023-11-21T05:36:13;9.00;72.20
3198;DHT22;1611;49.394;11.136;2023-11-21T05:38:40;9.00;72.40
3198;DHT22;1611;49.394;11.136;2023-11-21T05:41:08;9.00;72.30
3198;DHT22;1611;49.394;11.136;2023-11-21T05:43:36;9.00;72.60
3198;DHT22;1611;49.394;11.136;2023-11-21T05:46:03;9.00;72.50
3198;DHT22;1611;49.394;11.136;2023-11-21T05:48:31;9.00;72.50
3198;DHT22;1611;49.394;11.136;2023-11-21T05:50:59;9.00;72.80
3198;DHT22;1611;49.394;11.136;2023-11-21T05:53:27;9.00;72.90
3198;DHT22;1611;49.394;11.136;2023-11-21T05:55:54;9.00;72.80
3198;DHT22;1611;49.394;11.136;2023-11-21T05:58:19;9.00;72.30
3198;DHT22;1611;49.394;11.136;2023-11-21T06:00:46;9.00;72.40
3198;DHT22;1611;49.394;11.136;2023-11-21T06:03:13;8.90;72.70
3198;DHT22;1611;49.394;11.136;2023-11-21T06:05:40;9.10;72.90
3198;DHT22;1611;49.394;11.136;2023-11-21T06:08:08;9.10;72.40
3198;DHT22;1611;49.394;11.136;2023-11-21T06:10:36;9.00;72.50
3198;DHT22;1611;49.394;11.136;2023-11-21T06:13:02;9.00;72.60
3198;DHT22;1611;49.394;11.136;2023-11-21T06:15:29;9.00;72.60
3198;DHT22;1611;49.394;11.136;2023-11-21T06:17:56;9.10;72.60
3198;DHT22;1611;49.394;11.136;2023-11-21T06:20:24;9.10;72.50
3198;DHT22;1611;49.394;11.136;2023-11-21T06:22:51;9.10;72.40
3198;DHT22;1611;49.394;11.136;2023-11-21T06:25:20;9.00;72.40
3198;DHT22;1611;49.394;11.136;2023-11-21T06:27:48;9.00;72.30
3198;DHT22;1611;49.394;11.136;2023-11-21T06:30:15;9.00;72.60
3198;DHT22;1611;49.394;11.136;2023-11-21T06:32:42;9.00;72.20
3198;DHT22;1611;49.394;11.136;2023-11-21T06:35:11;9.10;72.60
3198;DHT22;1611;49.394;11.136;2023-11-21T06:37:38;9.00;72.10
3198;DHT22;1611;49.394;11.136;2023-11-21T06:40:06;8.90;72.60
3198;DHT22;1611;49.394;11.136;2023-11-21T06:42:36;9.00;73.00
3198;DHT22;1611;49.394;11.136;2023-11-21T06:45:05;9.00;72.60
3198;DHT22;1611;49.394;11.136;2023-11-21T06:47:31;9.00;72.20
3198;DHT22;1611;49.394;11.136;2023-11-21T06:49:59;9.00;73.20
3198;DHT22;1611;49.394;11.136;2023-11-21T06:52:26;8.90;72.90
3198;DHT22;1611;49.394;11.136;2023-11-21T06:54:52;9.00;73.00
3198;DHT22;1611;49.394;11.136;2023-11-21T06:57:20;9.00;72.50
3198;DHT22;1611;49.394;11.136;2023-11-21T06:59:48;9.00;72.40
3198;DHT22;1611;49.394;11.136;2023-11-21T07:02:15;9.00;72.00
3198;DHT22;1611;49.394;11.136;2023-11-21T07:04:43;9.00;72.20
3198;DHT22;1611;49.394;11.136;2023-11-21T07:07:10;9.00;71.90
3198;DHT22;1611;49.394;11.136;2023-11-21T07:09:37;9.00;72.20
3198;DHT22;1611;49.394;11.136;2023-11-21T07:12:04;8.90;73.00
3198;DHT22;1611;49.394;11.136;2023-11-21T07:14:33;8.90;73.80
3198;DHT22;1611;49.394;11.136;2023-11-21T07:17:01;8.90;73.90
3198;DHT22;1611;49.394;11.136;2023-11-21T07:19:28;9.00;73.80
3198;DHT22;1611;49.394;11.136;2023-11-21T07:21:55;9.00;73.20
3198;DHT22;1611;49.394;11.136;2023-11-21T07:24:21;9.10;73.10
3198;DHT22;1611;49.394;11.136;2023-11-21T07:26:49;9.10;72.70
3198;DHT22;1611;49.394;11.136;2023-11-21T07:29:15;9.10;73.00
3198;DHT22;1611;49.394;11.136;2023-11-21T07:31:42;9.20;72.90
3198;DHT22;1611;49.394;11.136;2023-11-21T07:34:10;9.20;72.80
3198;DHT22;1611;49.394;11.136;2023-11-21T07:36:37;9.30;72.10
3198;DHT22;1611;49.394;11.136;2023-11-21T07:39:04;9.20;71.60
3198;DHT22;1611;49.394;11.136;2023-11-21T07:41:32;9.30;71.80
3198;DHT22;1611;49.394;11.136;2023-11-21T07:43:58;9.20;71.30
3198;DHT22;1611;49.394;11.136;2023-11-21T07:46:26;9.30;72.20
3198;DHT22;1611;49.394;11.136;2023-11-21T07:48:53;9.40;71.50
3198;DHT22;1611;49.394;11.136;2023-11-21T07:51:22;9.40;71.40
3198;DHT22;1611;49.394;11.136;2023-11-21T07:53:48;9.40;72.00
3198;DHT22;1611;49.394;11.136;2023-11-21T07:56:15;9.50;71.40
3198;DHT22;1611;49.394;11.136;2023-11-21T07:58:42;9.60;71.10
3198;DHT22;1611;49.394;11.136;2023-11-21T08:01:09;9.60;70.30
3198;DHT22;1611;49.394;11.136;2023-11-21T08:03:37;9.70;70.20
3198;DHT22;1611;49.394;11.136;2023-11-21T08:06:04;9.80;70.00
3198;DHT22;1611;49.394;11.136;2023-11-21T08:08:33;9.90;69.80
3198;DHT22;1611;49.394;11.136;2023-11-21T08:11:00;10.00;69.00
3198;DHT22;1611;49.394;11.136;2023-11-21T08:13:28;10.10;68.50
3198;DHT22;1611;49.394;11.136;2023-11-21T08:15:57;10.20;68.20
3198;DHT22;1611;49.394;11.136;2023-11-21T08:18:27;10.20;67.60
3198;DHT22;1611;49.394;11.136;2023-11-21T08:20:54;10.20;67.80
3198;DHT22;1611;49.394;11.136;2023-11-21T08:23:21;10.30;68.00
3198;DHT22;1611;49.394;11.136;2023-11-21T08:25:52;10.40;67.10
3198;DHT22;1611;49.394;11.136;2023-11-21T08:28:19;10.40;66.40
3198;DHT22;1611;49.394;11.136;2023-11-21T08:30:47;10.50;66.30
3198;DHT22;1611;49.394;11.136;2023-11-21T08:33:14;10.40;66.30
3198;DHT22;1611;49.394;11.136;2023-11-21T08:35:41;10.40;66.20
3198;DHT22;1611;49.394;11.136;2023-11-21T08:38:07;10.50;65.80
3198;DHT22;1611;49.394;11.136;2023-11-21T08:40:35;10.50;65.40
3198;DHT22;1611;49.394;11.136;2023-11-21T08:43:03;10.50;64.30
3198;DHT22;1611;49.394;11.136;2023-11-21T08:45:31;10.50;65.10
3198;DHT22;1611;49.394;11.136;2023-11-21T08:47:59;10.60;65.20
3198;DHT22;1611;49.394;11.136;2023-11-21T08:50:26;10.60;64.30
3198;DHT22;1611;49.394;11.136;2023-11-21T08:52:53;10.60;64.70
3198;DHT22;1611;49.394;11.136;2023-11-21T08:55:21;10.70;64.70
3198;DHT22;1611;49.394;11.136;2023-11-21T08:57:47;10.80;64.00
3198;DHT22;1611;49.394;11.136;2023-11-21T09:00:17;10.90;62.60
3198;DHT22;1611;49.394;11.136;2023-11-21T09:02:44;11.00;62.50
3198;DHT22;1611;49.394;11.136;2023-11-21T09:05:12;11.00;62.50
3198;DHT22;1611;49.394;11.136;2023-11-21T09:07:39;11.10;62.40
3198;DHT22;1611;49.394;11.136;2023-11-21T09:10:07;11.20;62.50
3198;DHT22;1611;49.394;11.136;2023-11-21T09:12:35;11.20;60.70
3198;DHT22;1611;49.394;11.136;2023-11-21T09:15:03;11.20;60.50
3198;DHT22;1611;49.394;11.136;2023-11-21T09:17:32;11.20;61.10
3198;DHT22;1611;49.394;11.136;2023-11-21T09:19:59;11.30;61.60
3198;DHT22;1611;49.394;11.136;2023-11-21T09:22:26;11.30;61.10
3198;DHT22;1611;49.394;11.136;2023-11-21T09:24:55;11.30;61.30
3198;DHT22;1611;49.394;11.136;2023-11-21T09:27:23;11.40;60.00
3198;DHT22;1611;49.394;11.136;2023-11-21T09:29:51;11.40;60.80
3198;DHT22;1611;49.394;11.136;2023-11-21T09:32:18;11.40;60.90
3198;DHT22;1611;49.394;11.136;2023-11-21T09:34:48;11.40;61.00
3198;DHT22;1611;49.394;11.136;2023-11-21T09:37:15;11.40;60.70
3198;DHT22;1611;49.394;11.136;2023-11-21T09:39:42;11.30;59.70
3198;DHT22;1611;49.394;11.136;2023-11-21T09:42:12;11.30;60.20
3198;DHT22;1611;49.394;11.136;2023-11-21T09:44:45;11.30;61.20
3198;DHT22;1611;49.394;11.136;2023-11-21T09:47:15;11.30;61.50
3198;DHT22;1611;49.394;11.136;2023-11-21T09:49:46;11.40;61.40
3198;DHT22;1611;49.394;11.136;2023-11-21T09:52:22;11.50;60.80
3198;DHT22;1611;49.394;11.136;2023-11-21T09:54:51;11.60;60.30
3198;DHT22;1611;49.394;11.136;2023-11-21T09:57:19;11.70;60.20
3198;DHT22;1611;49.394;11.136;2023-11-21T09:59:51;11.60;60.40
3198;DHT22;1611;49.394;11.136;2023-11-21T10:02:17;11.50;60.00
3198;DHT22;1611;49.394;11.136;2023-11-21T10:04:46;11.40;60.10
3198;DHT22;1611;49.394;11.136;2023-11-21T10:07:18;11.30;60.80
3198;DHT22;1611;49.394;11.136;2023-11-21T10:09:47;11.30;61.30
3198;DHT22;1611;49.394;11.136;2023-11-21T10:12:15;11.30;62.10
3198;DHT22;1611;49.394;11.136;2023-11-21T10:14:42;11.30;62.10
3198;DHT22;1611;49.394;11.136;2023-11-21T10:17:10;11.30;62.20
3198;DHT22;1611;49.394;11.136;2023-11-21T10:19:39;11.20;60.40
3198;DHT22;1611;49.394;11.136;2023-11-21T10:22:06;11.20;61.50
3198;DHT22;1611;49.394;11.136;2023-11-21T10:24:35;11.30;61.70
3198;DHT22;1611;49.394;11.136;2023-11-21T10:27:04;11.50;62.40
3198;DHT22;1611;49.394;11.136;2023-11-21T10:29:30;11.60;59.20
3198;DHT22;1611;49.394;11.136;2023-11-21T10:32:01;11.70;59.90
3198;DHT22;1611;49.394;11.136;2023-11-21T10:34:29;11.90;59.50
3198;DHT22;1611;49.394;11.136;2023-11-21T10:36:56;12.10;59.20
3198;DHT22;1611;49.394;11.136;2023-11-21T10:39:24;12.20;58.20
3198;DHT22;1611;49.394;11.136;2023-11-21T10:41:55;12.30;58.00
3198;DHT22;1611;49.394;11.136;2023-11-21T10:44:22;12.40;56.80
3198;DHT22;1611;49.394;11.136;2023-11-21T10:46:50;12.40;56.50
3198;DHT22;1611;49.394;11.136;2023-11-21T10:49:18;12.30;54.60
3198;DHT22;1611;49.394;11.136;2023-11-21T10:51:45;12.30;54.90
3198;DHT22;1611;49.394;11.136;2023-11-21T10:54:17;12.30;55.10
3198;DHT22;1611;49.394;11.136;2023-11-21T10:56:45;12.30;54.70
3198;DHT22;1611;49.394;11.136;2023-11-21T10:59:13;12.20;54.30
3198;DHT22;1611;49.394;11.136;2023-11-21T11:01:42;12.20;54.80
3198;DHT22;1611;49.394;11.136;2023-11-21T11:04:12;12.20;54.90
3198;DHT22;1611;49.394;11.136;2023-11-21T11:06:42;12.30;56.00
3198;DHT22;1611;49.394;11.136;2023-11-21T11:09:11;12.30;55.00
3198;DHT22;1611;49.394;11.136;2023-11-21T11:11:39;12.10;53.10
3198;DHT22;1611;49.394;11.136;2023-11-21T11:14:07;11.90;54.50
3198;DHT22;1611;49.394;11.136;2023-11-21T11:16:37;11.70;55.10
3198;DHT22;1611;49.394;11.136;2023-11-21T11:19:05;11.80;64.40
3198;DHT22;1611;49.394;11.136;2023-11-21T11:21:41;11.90;64.20
3198;DHT22;1611;49.394;11.136;2023-11-21T11:24:22;12.10;61.90
3198;DHT22;1611;49.394;11.136;2023-11-21T11:27:00;12.10;57.90
3198;DHT22;1611;49.394;11.136;2023-11-21T11:29:33;12.20;55.30
3198;DHT22;1611;49.394;11.136;2023-11-21T11:32:10;12.00;54.90
3198;DHT22;1611;49.394;11.136;2023-11-21T11:34:44;12.20;54.50
3198;DHT22;1611;49.394;11.136;2023-11-21T11:37:12;12.30;54.20
3198;DHT22;1611;49.394;11.136;2023-11-21T11:39:41;12.40;54.50
3198;DHT22;1611;49.394;11.136;2023-11-21T11:42:12;12.40;53.70
3198;DHT22;1611;49.394;11.136;2023-11-21T11:44:50;12.30;52.60
3198;DHT22;1611;49.394;11.136;2023-11-21T11:47:24;12.30;53.30
3198;DHT22;1611;49.394;11.136;2023-11-21T11:50:00;12.20;53.50
3198;DHT22;1611;49.394;11.136;2023-11-21T11:52:37;12.10;54.70
3198;DHT22;1611;49.394;11.136;2023-11-21T11:55:06;12.10;54.70
3198;DHT22;1611;49.394;11.136;2023-11-21T11:57:35;12.20;54.40
3198;DHT22;1611;49.394;11.136;2023-11-21T12:00:17;12.20;54.10
3198;DHT22;1611;49.394;11.136;2023-11-21T12:02:53;12.10;54.60
3198;DHT22;1611;49.394;11.136;2023-11-21T12:05:22;12.00;54.10
3198;DHT22;1611;49.394;11.136;2023-11-21T12:07:54;11.90;53.70
3198;DHT22;1611;49.394;11.136;2023-11-21T12:10:23;11.80;53.10
3198;DHT22;1611;49.394;11.136;2023-11-21T12:12:52;11.70;54.30
3198;DHT22;1611;49.394;11.136;2023-11-21T12:15:19;11.70;55.20
3198;DHT22;1611;49.394;11.136;2023-11-21T12:17:47;11.60;55.60
3198;DHT22;1611;49.394;11.136;2023-11-21T12:20:18;11.60;55.90
3198;DHT22;1611;49.394;11.136;2023-11-21T12:22:46;11.50;54.70
3198;DHT22;1611;49.394;11.136;2023-11-21T12:25:14;11.50;55.90
3198;DHT22;1611;49.394;11.136;2023-11-21T12:27:44;11.30;56.20
3198;DHT22;1611;49.394;11.136;2023-11-21T12:30:12;11.40;56.60
3198;DHT22;1611;49.394;11.136;2023-11-21T12:32:41;11.30;56.60
3198;DHT22;1611;49.394;11.136;2023-11-21T12:35:09;11.30;57.10
3198;DHT22;1611;49.394;11.136;2023-11-21T12:37:38;11.30;57.20
3198;DHT22;1611;49.394;11.136;2023-11-21T12:40:07;11.30;57.20
3198;DHT22;1611;49.394;11.136;2023-11-21T12:42:37;11.20;57.00
3198;DHT22;1611;49.394;11.136;2023-11-21T12:45:08;11.20;57.50
3198;DHT22;1611;49.394;11.136;2023-11-21T12:47:40;11.20;57.90
3198;DHT22;1611;49.394;11.136;2023-11-21T12:50:07;11.20;58.60
3198;DHT22;1611;49.394;11.136;2023-11-21T12:52:44;11.30;58.00
3198;DHT22;1611;49.394;11.136;2023-11-21T12:55:16;11.30;57.40
3198;DHT22;1611;49.394;11.136;2023-11-21T12:57:44;11.30;57.20
3198;DHT22;1611;49.394;11.136;2023-11-21T13:00:13;11.40;57.80
3198;DHT22;1611;49.394;11.136;2023-11-21T13:02:56;11.50;58.30
3198;DHT22;1611;49.394;11.136;2023-11-21T13:05:24;11.60;58.70
3198;DHT22;1611;49.394;11.136;2023-11-21T13:07:52;11.70;56.80
3198;DHT22;1611;49.394;11.136;2023-11-21T13:10:21;11.70;56.80
3198;DHT22;1611;49.394;11.136;2023-11-21T13:12:52;11.60;56.30
3198;DHT22;1611;49.394;11.136;2023-11-21T13:15:20;11.60;56.90
3198;DHT22;1611;49.394;11.136;2023-11-21T13:17:47;11.60;57.30
3198;DHT22;1611;49.394;11.136;2023-11-21T13:20:14;11.60;57.80
3198;DHT22;1611;49.394;11.136;2023-11-21T13:22:47;11.70;57.20
3198;DHT22;1611;49.394;11.136;2023-11-21T13:25:15;11.50;57.50
3198;DHT22;1611;49.394;11.136;2023-11-21T13:27:43;11.30;57.90
3198;DHT22;1611;49.394;11.136;2023-11-21T13:30:12;11.20;58.40
3198;DHT22;1611;49.394;11.136;2023-11-21T13:32:41;11.30;58.90
3198;DHT22;1611;49.394;11.136;2023-11-21T13:35:08;11.30;58.70
3198;DHT22;1611;49.394;11.136;2023-11-21T13:37:41;11.20;58.70
3198;DHT22;1611;49.394;11.136;2023-11-21T13:40:08;11.20;58.40
3198;DHT22;1611;49.394;11.136;2023-11-21T13:42:41;11.20;58.70
3198;DHT22;1611;49.394;11.136;2023-11-21T13:45:09;11.30;58.70
3198;DHT22;1611;49.394;11.136;2023-11-21T13:47:37;11.30;58.60
3198;DHT22;1611;49.394;11.136;2023-11-21T13:50:06;11.20;58.50
3198;DHT22;1611;49.394;11.136;2023-11-21T13:52:42;11.10;58.90
3198;DHT22;1611;49.394;11.136;2023-11-21T13:55:10;11.20;57.30
3198;DHT22;1611;49.394;11.136;2023-11-21T13:57:42;11.20;58.10
3198;DHT22;1611;49.394;11.136;2023-11-21T14:00:13;11.30;57.80
3198;DHT22;1611;49.394;11.136;2023-11-21T14:03:01;11.30;57.30
3198;DHT22;1611;49.394;11.136;2023-11-21T14:05:28;11.40;56.90
3198;DHT22;1611;49.394;11.136;2023-11-21T14:07:57;11.50;56.90
3198;DHT22;1611;49.394;11.136;2023-11-21T14:10:29;11.40;56.50
3198;DHT22;1611;49.394;11.136;2023-11-21T14:13:03;11.50;56.00
3198;DHT22;1611;49.394;11.136;2023-11-21T14:15:31;11.40;55.70
3198;DHT22;1611;49.394;11.136;2023-11-21T14:17:58;11.40;55.30
3198;DHT22;1611;49.394;11.136;2023-11-21T14:20:28;11.40;55.70
3198;DHT22;1611;49.394;11.136;2023-11-21T14:22:55;11.40;56.10
3198;DHT22;1611;49.394;11.136;2023-11-21T14:25:22;11.50;55.70
3198;DHT22;1611;49.394;11.136;2023-11-21T14:27:50;11.60;55.40
3198;DHT22;1611;49.394;11.136;2023-11-21T14:30:18;11.70;55.10
3198;DHT22;1611;49.394;11.136;2023-11-21T14:32:47;11.70;55.30
3198;DHT22;1611;49.394;11.136;2023-11-21T14:35:15;11.80;54.60
3198;DHT22;1611;49.394;11.136;2023-11-21T14:37:42;11.80;54.00
3198;DHT22;1611;49.394;11.136;2023-11-21T14:40:09;11.90;54.00
3198;DHT22;1611;49.394;11.136;2023-11-21T14:42:36;11.80;54.20
3198;DHT22;1611;49.394;11.136;2023-11-21T14:45:06;11.70;54.70
3198;DHT22;1611;49.394;11.136;2023-11-21T14:47:35;11.70;54.10
3198;DHT22;1611;49.394;11.136;2023-11-21T14:50:08;11.60;54.40
3198;DHT22;1611;49.394;11.136;2023-11-21T14:52:58;11.50;54.80
3198;DHT22;1611;49.394;11.136;2023-11-21T14:55:24;11.40;55.50
3198;DHT22;1611;49.394;11.136;2023-11-21T14:57:57;11.20;56.30
3198;DHT22;1611;49.394;11.136;2023-11-21T15:00:25;11.20;55.90
3198;DHT22;1611;49.394;11.136;2023-11-21T15:03:12;11.10;56.30
3198;DHT22;1611;49.394;11.136;2023-11-21T15:05:56;10.90;57.50
3198;DHT22;1611;49.394;11.136;2023-11-21T15:08:23;10.90;58.20
3198;DHT22;1611;49.394;11.136;2023-11-21T15:10:55;10.80;58.60
3198;DHT22;1611;49.394;11.136;2023-11-21T15:13:22;10.70;59.00
3198;DHT22;1611;49.394;11.136;2023-11-21T15:15:50;10.70;59.20
3198;DHT22;1611;49.394;11.136;2023-11-21T15:18:17;10.60;58.70
3198;DHT22;1611;49.394;11.136;2023-11-21T15:20:44;10.40;58.90
3198;DHT22;1611;49.394;11.136;2023-11-21T15:23:11;10.40;59.70
3198;DHT22;1611;49.394;11.136;2023-11-21T15:25:39;10.50;61.10
3198;DHT22;1611;49.394;11.136;2023-11-21T15:28:06;10.20;62.10
3198;DHT22;1611;49.394;11.136;2023-11-21T15:30:32;10.20;63.00
3198;DHT22;1611;49.394;11.136;2023-11-21T15:33:00;10.10;63.80
3198;DHT22;1611;49.394;11.136;2023-11-21T15:35:30;10.10;64.60
3198;DHT22;1611;49.394;11.136;2023-11-21T15:37:58;10.00;65.10
3198;DHT22;1611;49.394;11.136;2023-11-21T15:40:25;9.80;66.10
3198;DHT22;1611;49.394;11.136;2023-11-21T15:42:51;9.70;66.60
3198;DHT22;1611;49.394;11.136;2023-11-21T15:45:19;9.70;67.20
3198;DHT22;1611;49.394;11.136;2023-11-21T15:47:48;9.70;67.70
3198;DHT22;1611;49.394;11.136;2023-11-21T15:50:15;9.60;68.00
3198;DHT22;1611;49.394;11.136;2023-11-21T15:52:43;9.60;68.00
3198;DHT22;1611;49.394;11.136;2023-11-21T15:55:11;9.60;68.20
3198;DHT22;1611;49.394;11.136;2023-11-21T15:57:38;9.50;68.60
3198;DHT22;1611;49.394;11.136;2023-11-21T16:00:06;9.50;69.00
3198;DHT22;1611;49.394;11.136;2023-11-21T16:02:41;9.50;69.10